sensor_id;sensor_type;location;lat;lon;timestamp;P1;durP1;ratioP1;P2;durP2;ratioP2
66826;SDS011;53727;45.242;19.796;2022-12-07T00:01:24;54.70;;;37.65;;
66826;SDS011;53727;45.242;19.796;2022-12-07T00:03:51;52.38;;;36.65;;
66826;SDS011;53727;45.242;19.796;2022-12-07T00:06:18;55.90;;;38.03;;
66826;SDS011;53727;45.242;19.796;2022-12-07T00:08:45;53.90;;;38.20;;
66826;SDS011;53727;45.242;19.796;2022-12-07T00:11:12;55.97;;;39.17;;
66826;SDS011;53727;45.242;19.796;2022-12-07T00:13:39;49.47;;;35.75;;
66826;SDS011;53727;45.242;19.796;2022-12-07T00:16:07;55.85;;;37.67;;
66826;SDS011;53727;45.242;19.796;2022-12-07T00:18:33;56.53;;;38.25;;
66826;SDS011;53727;45.242;19.796;2022-12-07T00:21:03;52.90;;;36.88;;
66826;SDS011;53727;45.242;19.796;2022-12-07T00:23:30;55.50;;;38.97;;
66826;SDS011;53727;45.242;19.796;2022-12-07T00:26:02;53.15;;;38.08;;
66826;SDS011;53727;45.242;19.796;2022-12-07T00:28:28;54.38;;;37.75;;
66826;SDS011;53727;45.242;19.796;2022-12-07T00:30:59;55.65;;;37.80;;
66826;SDS011;53727;45.242;19.796;2022-12-07T00:33:26;56.50;;;37.92;;
66826;SDS011;53727;45.242;19.796;2022-12-07T00:35:56;59.92;;;40.75;;
66826;SDS011;53727;45.242;19.796;2022-12-07T00:38:22;58.55;;;38.78;;
66826;SDS011;53727;45.242;19.796;2022-12-07T00:40:58;61.58;;;41.85;;
66826;SDS011;53727;45.242;19.796;2022-12-07T00:43:25;58.58;;;39.70;;
66826;SDS011;53727;45.242;19.796;2022-12-07T00:45:51;67.60;;;44.05;;
66826;SDS011;53727;45.242;19.796;2022-12-07T00:48:18;65.53;;;43.15;;
66826;SDS011;53727;45.242;19.796;2022-12-07T00:50:44;56.65;;;39.08;;
66826;SDS011;53727;45.242;19.796;2022-12-07T00:53:10;60.80;;;40.15;;
66826;SDS011;53727;45.242;19.796;2022-12-07T00:55:36;63.58;;;41.40;;
66826;SDS011;53727;45.242;19.796;2022-12-07T00:58:02;60.70;;;40.67;;
66826;SDS011;53727;45.242;19.796;2022-12-07T01:00:28;63.55;;;41.38;;
66826;SDS011;53727;45.242;19.796;2022-12-07T01:02:54;62.30;;;39.92;;
66826;SDS011;53727;45.242;19.796;2022-12-07T01:05:20;65.65;;;40.22;;
66826;SDS011;53727;45.242;19.796;2022-12-07T01:07:46;64.63;;;39.08;;
66826;SDS011;53727;45.242;19.796;2022-12-07T01:10:13;65.43;;;41.03;;
66826;SDS011;53727;45.242;19.796;2022-12-07T01:12:39;66.80;;;41.08;;
66826;SDS011;53727;45.242;19.796;2022-12-07T01:15:05;76.30;;;44.55;;
66826;SDS011;53727;45.242;19.796;2022-12-07T01:17:32;71.25;;;43.25;;
66826;SDS011;53727;45.242;19.796;2022-12-07T01:19:57;73.78;;;43.58;;
66826;SDS011;53727;45.242;19.796;2022-12-07T01:22:23;66.28;;;40.40;;
66826;SDS011;53727;45.242;19.796;2022-12-07T01:24:49;65.90;;;39.33;;
66826;SDS011;53727;45.242;19.796;2022-12-07T01:27:15;65.60;;;39.50;;
66826;SDS011;53727;45.242;19.796;2022-12-07T01:29:41;68.95;;;41.60;;
66826;SDS011;53727;45.242;19.796;2022-12-07T01:32:07;69.05;;;40.20;;
66826;SDS011;53727;45.242;19.796;2022-12-07T01:34:33;65.90;;;38.28;;
66826;SDS011;53727;45.242;19.796;2022-12-07T01:36:59;71.05;;;40.88;;
66826;SDS011;53727;45.242;19.796;2022-12-07T01:39:25;70.22;;;39.95;;
66826;SDS011;53727;45.242;19.796;2022-12-07T01:41:52;61.35;;;39.03;;
66826;SDS011;53727;45.242;19.796;2022-12-07T01:46:48;64.95;;;40.15;;
66826;SDS011;53727;45.242;19.796;2022-12-07T01:49:16;62.70;;;37.67;;
66826;SDS011;53727;45.242;19.796;2022-12-07T01:51:43;59.28;;;36.28;;
66826;SDS011;53727;45.242;19.796;2022-12-07T01:54:09;61.47;;;38.58;;
66826;SDS011;53727;45.242;19.796;2022-12-07T01:56:37;61.25;;;37.72;;
66826;SDS011;53727;45.242;19.796;2022-12-07T01:59:04;66.15;;;38.35;;
66826;SDS011;53727;45.242;19.796;2022-12-07T02:01:30;61.83;;;37.00;;
66826;SDS011;53727;45.242;19.796;2022-12-07T02:03:56;63.00;;;36.78;;
66826;SDS011;53727;45.242;19.796;2022-12-07T02:06:24;59.53;;;37.30;;
66826;SDS011;53727;45.242;19.796;2022-12-07T02:08:50;59.40;;;35.47;;
66826;SDS011;53727;45.242;19.796;2022-12-07T02:11:16;67.35;;;38.58;;
66826;SDS011;53727;45.242;19.796;2022-12-07T02:13:42;63.95;;;38.03;;
66826;SDS011;53727;45.242;19.796;2022-12-07T02:31:28;51.63;;;32.30;;
66826;SDS011;53727;45.242;19.796;2022-12-07T02:34:06;52.47;;;33.20;;
66826;SDS011;53727;45.242;19.796;2022-12-07T02:36:34;52.65;;;31.38;;
66826;SDS011;53727;45.242;19.796;2022-12-07T02:39:26;51.83;;;33.08;;
66826;SDS011;53727;45.242;19.796;2022-12-07T02:41:56;52.45;;;31.52;;
66826;SDS011;53727;45.242;19.796;2022-12-07T02:44:23;50.08;;;31.08;;
66826;SDS011;53727;45.242;19.796;2022-12-07T02:46:52;51.65;;;32.05;;
66826;SDS011;53727;45.242;19.796;2022-12-07T02:49:20;54.28;;;30.77;;
66826;SDS011;53727;45.242;19.796;2022-12-07T02:51:47;55.00;;;33.67;;
66826;SDS011;53727;45.242;19.796;2022-12-07T02:54:14;51.10;;;33.13;;
66826;SDS011;53727;45.242;19.796;2022-12-07T02:56:46;48.63;;;31.65;;
66826;SDS011;53727;45.242;19.796;2022-12-07T02:59:26;48.85;;;31.08;;
66826;SDS011;53727;45.242;19.796;2022-12-07T03:07:23;47.35;;;31.17;;
66826;SDS011;53727;45.242;19.796;2022-12-07T03:13:11;49.13;;;32.05;;
66826;SDS011;53727;45.242;19.796;2022-12-07T03:15:14;49.15;;;31.67;;
66826;SDS011;53727;45.242;19.796;2022-12-07T03:17:51;48.88;;;30.60;;
66826;SDS011;53727;45.242;19.796;2022-12-07T03:20:19;44.50;;;30.75;;
66826;SDS011;53727;45.242;19.796;2022-12-07T03:22:48;47.47;;;30.88;;
66826;SDS011;53727;45.242;19.796;2022-12-07T03:25:16;49.17;;;30.38;;
66826;SDS011;53727;45.242;19.796;2022-12-07T03:27:53;46.03;;;29.88;;
66826;SDS011;53727;45.242;19.796;2022-12-07T03:30:23;45.10;;;30.65;;
66826;SDS011;53727;45.242;19.796;2022-12-07T03:32:58;51.72;;;32.88;;
66826;SDS011;53727;45.242;19.796;2022-12-07T03:35:31;78.85;;;47.88;;
66826;SDS011;53727;45.242;19.796;2022-12-07T03:41:08;48.50;;;31.52;;
66826;SDS011;53727;45.242;19.796;2022-12-07T03:43:39;42.38;;;28.73;;
66826;SDS011;53727;45.242;19.796;2022-12-07T03:51:32;40.83;;;27.85;;
66826;SDS011;53727;45.242;19.796;2022-12-07T03:54:13;42.53;;;27.80;;
66826;SDS011;53727;45.242;19.796;2022-12-07T03:56:48;39.13;;;25.60;;
66826;SDS011;53727;45.242;19.796;2022-12-07T03:59:15;40.55;;;27.23;;
66826;SDS011;53727;45.242;19.796;2022-12-07T04:01:45;40.00;;;26.30;;
66826;SDS011;53727;45.242;19.796;2022-12-07T04:04:18;38.10;;;26.52;;
66826;SDS011;53727;45.242;19.796;2022-12-07T04:06:44;37.95;;;26.17;;
66826;SDS011;53727;45.242;19.796;2022-12-07T04:09:10;37.50;;;25.17;;
66826;SDS011;53727;45.242;19.796;2022-12-07T04:11:35;38.63;;;26.13;;
66826;SDS011;53727;45.242;19.796;2022-12-07T04:14:01;42.45;;;26.92;;
66826;SDS011;53727;45.242;19.796;2022-12-07T04:16:46;42.22;;;28.17;;
66826;SDS011;53727;45.242;19.796;2022-12-07T04:19:24;41.78;;;27.05;;
66826;SDS011;53727;45.242;19.796;2022-12-07T04:21:51;37.65;;;26.02;;
66826;SDS011;53727;45.242;19.796;2022-12-07T04:24:17;37.95;;;25.60;;
66826;SDS011;53727;45.242;19.796;2022-12-07T04:26:44;37.33;;;26.38;;
66826;SDS011;53727;45.242;19.796;2022-12-07T04:29:10;41.38;;;29.08;;
66826;SDS011;53727;45.242;19.796;2022-12-07T04:31:36;40.08;;;27.60;;
66826;SDS011;53727;45.242;19.796;2022-12-07T04:34:03;41.88;;;27.85;;
66826;SDS011;53727;45.242;19.796;2022-12-07T04:36:29;40.92;;;27.08;;
66826;SDS011;53727;45.242;19.796;2022-12-07T04:38:58;39.20;;;25.45;;
66826;SDS011;53727;45.242;19.796;2022-12-07T04:41:25;38.85;;;25.40;;
66826;SDS011;53727;45.242;19.796;2022-12-07T04:46:24;38.70;;;26.15;;
66826;SDS011;53727;45.242;19.796;2022-12-07T04:48:51;40.63;;;25.75;;
66826;SDS011;53727;45.242;19.796;2022-12-07T04:51:19;43.17;;;28.35;;
66826;SDS011;53727;45.242;19.796;2022-12-07T04:53:47;38.92;;;27.02;;
66826;SDS011;53727;45.242;19.796;2022-12-07T04:56:14;45.47;;;28.50;;
66826;SDS011;53727;45.242;19.796;2022-12-07T04:58:41;44.13;;;28.00;;
66826;SDS011;53727;45.242;19.796;2022-12-07T05:01:07;49.60;;;28.52;;
66826;SDS011;53727;45.242;19.796;2022-12-07T05:03:33;48.08;;;29.35;;
66826;SDS011;53727;45.242;19.796;2022-12-07T05:05:59;47.70;;;29.05;;
66826;SDS011;53727;45.242;19.796;2022-12-07T05:08:27;48.58;;;29.05;;
66826;SDS011;53727;45.242;19.796;2022-12-07T05:10:52;48.50;;;29.52;;
66826;SDS011;53727;45.242;19.796;2022-12-07T05:13:18;54.08;;;30.27;;
66826;SDS011;53727;45.242;19.796;2022-12-07T05:15:44;47.42;;;28.58;;
66826;SDS011;53727;45.242;19.796;2022-12-07T05:18:12;47.95;;;28.52;;
66826;SDS011;53727;45.242;19.796;2022-12-07T05:20:38;51.95;;;29.45;;
66826;SDS011;53727;45.242;19.796;2022-12-07T05:23:04;50.28;;;27.42;;
66826;SDS011;53727;45.242;19.796;2022-12-07T05:25:30;58.60;;;29.50;;
66826;SDS011;53727;45.242;19.796;2022-12-07T05:27:56;50.45;;;28.15;;
66826;SDS011;53727;45.242;19.796;2022-12-07T05:30:25;53.67;;;29.15;;
66826;SDS011;53727;45.242;19.796;2022-12-07T05:32:51;52.38;;;27.65;;
66826;SDS011;53727;45.242;19.796;2022-12-07T05:35:17;57.10;;;28.88;;
66826;SDS011;53727;45.242;19.796;2022-12-07T05:37:44;51.22;;;26.25;;
66826;SDS011;53727;45.242;19.796;2022-12-07T05:40:10;61.22;;;28.83;;
66826;SDS011;53727;45.242;19.796;2022-12-07T05:42:37;49.45;;;25.83;;
66826;SDS011;53727;45.242;19.796;2022-12-07T05:45:03;57.88;;;27.23;;
66826;SDS011;53727;45.242;19.796;2022-12-07T05:47:29;46.85;;;26.50;;
66826;SDS011;53727;45.242;19.796;2022-12-07T05:49:55;48.78;;;25.95;;
66826;SDS011;53727;45.242;19.796;2022-12-07T05:52:21;52.55;;;28.45;;
66826;SDS011;53727;45.242;19.796;2022-12-07T05:54:47;53.58;;;28.98;;
66826;SDS011;53727;45.242;19.796;2022-12-07T05:57:12;50.55;;;26.60;;
66826;SDS011;53727;45.242;19.796;2022-12-07T05:59:38;50.97;;;26.05;;
66826;SDS011;53727;45.242;19.796;2022-12-07T06:02:06;49.35;;;26.50;;
66826;SDS011;53727;45.242;19.796;2022-12-07T06:04:35;48.08;;;25.15;;
66826;SDS011;53727;45.242;19.796;2022-12-07T06:07:03;47.65;;;25.52;;
66826;SDS011;53727;45.242;19.796;2022-12-07T06:09:30;47.33;;;24.35;;
66826;SDS011;53727;45.242;19.796;2022-12-07T06:11:56;50.95;;;24.83;;
66826;SDS011;53727;45.242;19.796;2022-12-07T06:14:41;47.20;;;25.67;;
66826;SDS011;53727;45.242;19.796;2022-12-07T06:17:07;51.88;;;27.67;;
66826;SDS011;53727;45.242;19.796;2022-12-07T06:19:33;52.58;;;28.63;;
66826;SDS011;53727;45.242;19.796;2022-12-07T06:21:59;55.58;;;28.42;;
66826;SDS011;53727;45.242;19.796;2022-12-07T06:24:25;52.72;;;27.48;;
66826;SDS011;53727;45.242;19.796;2022-12-07T06:26:50;49.90;;;28.00;;
66826;SDS011;53727;45.242;19.796;2022-12-07T06:29:17;52.17;;;29.35;;
66826;SDS011;53727;45.242;19.796;2022-12-07T06:31:43;54.97;;;29.30;;
66826;SDS011;53727;45.242;19.796;2022-12-07T06:34:11;118.07;;;81.30;;
66826;SDS011;53727;45.242;19.796;2022-12-07T06:36:38;55.58;;;30.92;;
66826;SDS011;53727;45.242;19.796;2022-12-07T06:39:05;54.95;;;30.88;;
66826;SDS011;53727;45.242;19.796;2022-12-07T06:41:31;60.50;;;33.20;;
66826;SDS011;53727;45.242;19.796;2022-12-07T06:43:57;55.63;;;31.85;;
66826;SDS011;53727;45.242;19.796;2022-12-07T06:46:23;54.20;;;31.67;;
66826;SDS011;53727;45.242;19.796;2022-12-07T06:48:50;54.42;;;30.55;;
66826;SDS011;53727;45.242;19.796;2022-12-07T06:51:15;58.42;;;30.58;;
66826;SDS011;53727;45.242;19.796;2022-12-07T06:53:41;53.42;;;30.15;;
66826;SDS011;53727;45.242;19.796;2022-12-07T06:56:07;52.97;;;29.73;;
66826;SDS011;53727;45.242;19.796;2022-12-07T06:58:36;54.53;;;28.48;;
66826;SDS011;53727;45.242;19.796;2022-12-07T07:01:02;50.45;;;29.10;;
66826;SDS011;53727;45.242;19.796;2022-12-07T07:03:28;47.65;;;28.38;;
66826;SDS011;53727;45.242;19.796;2022-12-07T07:05:53;48.70;;;29.70;;
66826;SDS011;53727;45.242;19.796;2022-12-07T07:08:19;51.47;;;30.92;;
66826;SDS011;53727;45.242;19.796;2022-12-07T07:10:45;50.03;;;27.75;;
66826;SDS011;53727;45.242;19.796;2022-12-07T07:13:11;50.58;;;28.67;;
66826;SDS011;53727;45.242;19.796;2022-12-07T07:15:37;54.67;;;32.05;;
66826;SDS011;53727;45.242;19.796;2022-12-07T07:18:03;55.25;;;31.63;;
66826;SDS011;53727;45.242;19.796;2022-12-07T07:20:29;50.63;;;31.13;;
66826;SDS011;53727;45.242;19.796;2022-12-07T07:22:55;49.22;;;29.80;;
66826;SDS011;53727;45.242;19.796;2022-12-07T07:25:21;53.22;;;30.92;;
66826;SDS011;53727;45.242;19.796;2022-12-07T07:27:47;49.47;;;30.67;;
66826;SDS011;53727;45.242;19.796;2022-12-07T07:30:13;50.42;;;31.00;;
66826;SDS011;53727;45.242;19.796;2022-12-07T07:32:39;51.45;;;31.58;;
66826;SDS011;53727;45.242;19.796;2022-12-07T07:35:05;54.97;;;33.95;;
66826;SDS011;53727;45.242;19.796;2022-12-07T07:37:31;57.75;;;35.88;;
66826;SDS011;53727;45.242;19.796;2022-12-07T07:39:56;62.08;;;34.45;;
66826;SDS011;53727;45.242;19.796;2022-12-07T07:42:22;59.00;;;34.83;;
66826;SDS011;53727;45.242;19.796;2022-12-07T07:44:48;64.55;;;36.72;;
66826;SDS011;53727;45.242;19.796;2022-12-07T07:47:17;63.17;;;35.88;;
66826;SDS011;53727;45.242;19.796;2022-12-07T07:49:43;64.80;;;36.80;;
66826;SDS011;53727;45.242;19.796;2022-12-07T07:52:09;71.55;;;37.60;;
66826;SDS011;53727;45.242;19.796;2022-12-07T07:54:35;67.90;;;37.40;;
66826;SDS011;53727;45.242;19.796;2022-12-07T07:57:01;76.53;;;41.30;;
66826;SDS011;53727;45.242;19.796;2022-12-07T07:59:26;74.88;;;39.85;;
66826;SDS011;53727;45.242;19.796;2022-12-07T08:01:52;80.07;;;41.33;;
66826;SDS011;53727;45.242;19.796;2022-12-07T08:04:18;83.03;;;42.30;;
66826;SDS011;53727;45.242;19.796;2022-12-07T08:06:44;79.43;;;43.78;;
66826;SDS011;53727;45.242;19.796;2022-12-07T08:09:09;76.60;;;41.50;;
66826;SDS011;53727;45.242;19.796;2022-12-07T08:11:35;82.75;;;42.95;;
66826;SDS011;53727;45.242;19.796;2022-12-07T08:14:02;77.78;;;42.55;;
66826;SDS011;53727;45.242;19.796;2022-12-07T08:16:28;82.38;;;44.15;;
66826;SDS011;53727;45.242;19.796;2022-12-07T08:18:54;76.90;;;43.38;;
66826;SDS011;53727;45.242;19.796;2022-12-07T08:21:19;68.80;;;38.15;;
66826;SDS011;53727;45.242;19.796;2022-12-07T08:23:45;70.45;;;38.00;;
66826;SDS011;53727;45.242;19.796;2022-12-07T08:26:12;72.60;;;40.75;;
66826;SDS011;53727;45.242;19.796;2022-12-07T08:28:40;66.18;;;38.50;;
66826;SDS011;53727;45.242;19.796;2022-12-07T08:31:08;70.88;;;40.40;;
66826;SDS011;53727;45.242;19.796;2022-12-07T08:33:38;71.32;;;41.00;;
66826;SDS011;53727;45.242;19.796;2022-12-07T08:36:05;73.40;;;42.58;;
66826;SDS011;53727;45.242;19.796;2022-12-07T08:38:36;69.85;;;42.88;;
66826;SDS011;53727;45.242;19.796;2022-12-07T08:41:03;63.63;;;41.05;;
66826;SDS011;53727;45.242;19.796;2022-12-07T08:43:29;67.80;;;42.08;;
66826;SDS011;53727;45.242;19.796;2022-12-07T08:46:03;70.03;;;43.25;;
66826;SDS011;53727;45.242;19.796;2022-12-07T08:48:29;65.38;;;39.60;;
66826;SDS011;53727;45.242;19.796;2022-12-07T08:50:56;62.35;;;39.85;;
66826;SDS011;53727;45.242;19.796;2022-12-07T08:53:25;70.03;;;40.97;;
66826;SDS011;53727;45.242;19.796;2022-12-07T08:55:52;67.45;;;39.60;;
66826;SDS011;53727;45.242;19.796;2022-12-07T08:58:18;74.80;;;41.72;;
66826;SDS011;53727;45.242;19.796;2022-12-07T09:00:43;74.38;;;43.08;;
66826;SDS011;53727;45.242;19.796;2022-12-07T09:03:09;63.60;;;39.53;;
66826;SDS011;53727;45.242;19.796;2022-12-07T09:05:35;68.45;;;40.28;;
66826;SDS011;53727;45.242;19.796;2022-12-07T09:08:01;72.75;;;42.03;;
66826;SDS011;53727;45.242;19.796;2022-12-07T09:10:27;68.13;;;41.17;;
66826;SDS011;53727;45.242;19.796;2022-12-07T09:12:54;71.22;;;41.67;;
66826;SDS011;53727;45.242;19.796;2022-12-07T09:15:20;67.65;;;40.30;;
66826;SDS011;53727;45.242;19.796;2022-12-07T09:17:45;67.38;;;40.53;;
66826;SDS011;53727;45.242;19.796;2022-12-07T09:20:11;74.53;;;41.55;;
66826;SDS011;53727;45.242;19.796;2022-12-07T09:22:37;68.47;;;42.13;;
66826;SDS011;53727;45.242;19.796;2022-12-07T09:25:03;77.57;;;44.80;;
66826;SDS011;53727;45.242;19.796;2022-12-07T09:27:29;73.78;;;44.58;;
66826;SDS011;53727;45.242;19.796;2022-12-07T09:29:55;73.97;;;43.50;;
66826;SDS011;53727;45.242;19.796;2022-12-07T09:32:21;68.75;;;42.78;;
66826;SDS011;53727;45.242;19.796;2022-12-07T09:34:48;75.78;;;45.70;;
66826;SDS011;53727;45.242;19.796;2022-12-07T09:37:13;71.60;;;43.10;;
66826;SDS011;53727;45.242;19.796;2022-12-07T09:39:39;70.78;;;42.53;;
66826;SDS011;53727;45.242;19.796;2022-12-07T09:42:05;71.70;;;40.90;;
66826;SDS011;53727;45.242;19.796;2022-12-07T09:44:33;65.43;;;41.72;;
66826;SDS011;53727;45.242;19.796;2022-12-07T09:46:59;67.85;;;42.05;;
66826;SDS011;53727;45.242;19.796;2022-12-07T09:49:27;71.22;;;43.58;;
66826;SDS011;53727;45.242;19.796;2022-12-07T09:54:35;65.75;;;39.88;;
66826;SDS011;53727;45.242;19.796;2022-12-07T09:57:02;69.30;;;41.33;;
66826;SDS011;53727;45.242;19.796;2022-12-07T09:59:28;67.10;;;41.38;;
66826;SDS011;53727;45.242;19.796;2022-12-07T10:01:55;70.82;;;42.75;;
66826;SDS011;53727;45.242;19.796;2022-12-07T10:04:22;72.60;;;44.53;;
66826;SDS011;53727;45.242;19.796;2022-12-07T10:06:49;68.47;;;43.75;;
66826;SDS011;53727;45.242;19.796;2022-12-07T10:09:19;70.00;;;42.97;;
66826;SDS011;53727;45.242;19.796;2022-12-07T10:14:25;74.65;;;44.45;;
66826;SDS011;53727;45.242;19.796;2022-12-07T10:16:52;73.53;;;43.75;;
66826;SDS011;53727;45.242;19.796;2022-12-07T10:19:28;75.88;;;45.50;;
66826;SDS011;53727;45.242;19.796;2022-12-07T10:22:02;71.22;;;42.17;;
66826;SDS011;53727;45.242;19.796;2022-12-07T10:24:29;75.60;;;43.90;;
66826;SDS011;53727;45.242;19.796;2022-12-07T10:26:55;83.22;;;48.42;;
66826;SDS011;53727;45.242;19.796;2022-12-07T10:32:04;76.47;;;44.53;;
66826;SDS011;53727;45.242;19.796;2022-12-07T10:34:35;81.63;;;47.78;;
66826;SDS011;53727;45.242;19.796;2022-12-07T10:39:40;64.65;;;38.75;;
66826;SDS011;53727;45.242;19.796;2022-12-07T10:42:15;57.20;;;34.97;;
66826;SDS011;53727;45.242;19.796;2022-12-07T10:44:41;51.92;;;34.58;;
66826;SDS011;53727;45.242;19.796;2022-12-07T10:57:32;55.47;;;33.92;;
66826;SDS011;53727;45.242;19.796;2022-12-07T11:07:44;52.42;;;33.22;;
66826;SDS011;53727;45.242;19.796;2022-12-07T11:21:07;48.88;;;32.67;;
66826;SDS011;53727;45.242;19.796;2022-12-07T11:23:59;53.75;;;34.42;;
66826;SDS011;53727;45.242;19.796;2022-12-07T11:36:45;51.75;;;36.22;;
66826;SDS011;53727;45.242;19.796;2022-12-07T11:41:49;53.80;;;34.13;;
66826;SDS011;53727;45.242;19.796;2022-12-07T11:47:27;49.25;;;31.70;;
66826;SDS011;53727;45.242;19.796;2022-12-07T11:49:58;54.58;;;32.70;;
66826;SDS011;53727;45.242;19.796;2022-12-07T11:55:32;41.60;;;27.48;;
66826;SDS011;53727;45.242;19.796;2022-12-07T11:58:04;47.72;;;30.20;;
66826;SDS011;53727;45.242;19.796;2022-12-07T12:00:30;47.50;;;27.23;;
66826;SDS011;53727;45.242;19.796;2022-12-07T12:03:01;44.10;;;27.85;;
66826;SDS011;53727;45.242;19.796;2022-12-07T12:05:29;48.85;;;31.65;;
66826;SDS011;53727;45.242;19.796;2022-12-07T12:08:04;48.40;;;31.05;;
66826;SDS011;53727;45.242;19.796;2022-12-07T12:13:12;45.00;;;27.85;;
66826;SDS011;53727;45.242;19.796;2022-12-07T12:16:06;47.40;;;28.05;;
66826;SDS011;53727;45.242;19.796;2022-12-07T12:21:00;43.72;;;27.70;;
66826;SDS011;53727;45.242;19.796;2022-12-07T12:23:36;36.20;;;25.70;;
66826;SDS011;53727;45.242;19.796;2022-12-07T12:26:03;47.90;;;28.65;;
66826;SDS011;53727;45.242;19.796;2022-12-07T12:33:35;51.10;;;33.88;;
66826;SDS011;53727;45.242;19.796;2022-12-07T12:38:51;42.38;;;25.35;;
66826;SDS011;53727;45.242;19.796;2022-12-07T12:42:01;43.25;;;24.85;;
66826;SDS011;53727;45.242;19.796;2022-12-07T12:51:41;37.70;;;23.20;;
66826;SDS011;53727;45.242;19.796;2022-12-07T12:54:12;47.80;;;25.73;;
66826;SDS011;53727;45.242;19.796;2022-12-07T13:01:47;47.28;;;25.50;;
66826;SDS011;53727;45.242;19.796;2022-12-07T13:04:55;30.17;;;19.10;;
66826;SDS011;53727;45.242;19.796;2022-12-07T13:07:03;36.55;;;18.80;;
66826;SDS011;53727;45.242;19.796;2022-12-07T13:09:30;50.17;;;22.10;;
66826;SDS011;53727;45.242;19.796;2022-12-07T13:12:15;33.22;;;18.13;;
66826;SDS011;53727;45.242;19.796;2022-12-07T13:17:11;26.90;;;16.85;;
66826;SDS011;53727;45.242;19.796;2022-12-07T13:27:39;29.20;;;19.13;;
66826;SDS011;53727;45.242;19.796;2022-12-07T13:30:15;31.90;;;19.67;;
66826;SDS011;53727;45.242;19.796;2022-12-07T13:32:42;34.03;;;19.25;;
66826;SDS011;53727;45.242;19.796;2022-12-07T13:35:27;33.90;;;18.15;;
66826;SDS011;53727;45.242;19.796;2022-12-07T13:37:53;31.35;;;17.65;;
66826;SDS011;53727;45.242;19.796;2022-12-07T13:40:22;33.83;;;18.45;;
66826;SDS011;53727;45.242;19.796;2022-12-07T13:42:56;34.15;;;18.52;;
66826;SDS011;53727;45.242;19.796;2022-12-07T13:45:27;32.60;;;17.85;;
66826;SDS011;53727;45.242;19.796;2022-12-07T13:48:22;30.02;;;17.80;;
66826;SDS011;53727;45.242;19.796;2022-12-07T13:50:56;44.35;;;24.70;;
66826;SDS011;53727;45.242;19.796;2022-12-07T13:53:23;55.97;;;31.63;;
66826;SDS011;53727;45.242;19.796;2022-12-07T13:55:49;64.63;;;39.47;;
66826;SDS011;53727;45.242;19.796;2022-12-07T13:58:15;71.25;;;44.70;;
66826;SDS011;53727;45.242;19.796;2022-12-07T14:00:42;74.13;;;46.00;;
66826;SDS011;53727;45.242;19.796;2022-12-07T14:05:38;75.43;;;41.17;;
66826;SDS011;53727;45.242;19.796;2022-12-07T14:10:40;47.42;;;30.27;;
66826;SDS011;53727;45.242;19.796;2022-12-07T14:15:51;47.15;;;33.33;;
66826;SDS011;53727;45.242;19.796;2022-12-07T14:18:25;51.65;;;32.55;;
66826;SDS011;53727;45.242;19.796;2022-12-07T14:21:02;53.90;;;30.30;;
66826;SDS011;53727;45.242;19.796;2022-12-07T14:23:28;44.88;;;21.40;;
66826;SDS011;53727;45.242;19.796;2022-12-07T14:26:03;28.70;;;17.65;;
66826;SDS011;53727;45.242;19.796;2022-12-07T14:28:34;53.67;;;30.08;;
66826;SDS011;53727;45.242;19.796;2022-12-07T14:31:00;46.75;;;25.73;;
66826;SDS011;53727;45.242;19.796;2022-12-07T14:33:27;64.80;;;38.97;;
66826;SDS011;53727;45.242;19.796;2022-12-07T14:35:53;61.53;;;36.05;;
66826;SDS011;53727;45.242;19.796;2022-12-07T14:38:21;54.20;;;35.25;;
66826;SDS011;53727;45.242;19.796;2022-12-07T14:40:47;65.13;;;37.58;;
66826;SDS011;53727;45.242;19.796;2022-12-07T14:43:15;69.75;;;41.08;;
66826;SDS011;53727;45.242;19.796;2022-12-07T14:45:41;57.75;;;26.50;;
66826;SDS011;53727;45.242;19.796;2022-12-07T14:48:07;39.22;;;23.70;;
66826;SDS011;53727;45.242;19.796;2022-12-07T14:50:37;49.75;;;28.95;;
66826;SDS011;53727;45.242;19.796;2022-12-07T14:53:09;62.88;;;38.78;;
66826;SDS011;53727;45.242;19.796;2022-12-07T14:55:36;48.00;;;28.15;;
66826;SDS011;53727;45.242;19.796;2022-12-07T14:58:02;65.68;;;43.38;;
66826;SDS011;53727;45.242;19.796;2022-12-07T15:00:28;61.83;;;39.35;;
66826;SDS011;53727;45.242;19.796;2022-12-07T15:02:55;67.55;;;42.58;;
66826;SDS011;53727;45.242;19.796;2022-12-07T15:05:21;112.43;;;75.95;;
66826;SDS011;53727;45.242;19.796;2022-12-07T15:07:48;77.50;;;53.60;;
66826;SDS011;53727;45.242;19.796;2022-12-07T15:10:21;77.93;;;53.20;;
66826;SDS011;53727;45.242;19.796;2022-12-07T15:12:48;99.55;;;62.03;;
66826;SDS011;53727;45.242;19.796;2022-12-07T15:15:14;127.88;;;75.85;;
66826;SDS011;53727;45.242;19.796;2022-12-07T15:17:41;117.38;;;67.85;;
66826;SDS011;53727;45.242;19.796;2022-12-07T15:20:10;76.32;;;38.83;;
66826;SDS011;53727;45.242;19.796;2022-12-07T15:22:37;76.72;;;37.72;;
66826;SDS011;53727;45.242;19.796;2022-12-07T15:25:03;62.38;;;35.38;;
66826;SDS011;53727;45.242;19.796;2022-12-07T15:27:30;80.55;;;37.53;;
66826;SDS011;53727;45.242;19.796;2022-12-07T15:29:57;27.77;;;20.48;;
66826;SDS011;53727;45.242;19.796;2022-12-07T15:32:23;35.25;;;20.52;;
66826;SDS011;53727;45.242;19.796;2022-12-07T15:34:49;33.17;;;21.20;;
66826;SDS011;53727;45.242;19.796;2022-12-07T15:37:15;34.72;;;22.20;;
66826;SDS011;53727;45.242;19.796;2022-12-07T15:39:41;45.83;;;26.02;;
66826;SDS011;53727;45.242;19.796;2022-12-07T15:42:07;48.70;;;26.25;;
66826;SDS011;53727;45.242;19.796;2022-12-07T15:44:33;35.28;;;24.00;;
66826;SDS011;53727;45.242;19.796;2022-12-07T15:47:18;35.10;;;23.15;;
66826;SDS011;53727;45.242;19.796;2022-12-07T15:49:44;36.97;;;26.08;;
66826;SDS011;53727;45.242;19.796;2022-12-07T15:52:10;32.33;;;23.63;;
66826;SDS011;53727;45.242;19.796;2022-12-07T15:54:36;43.60;;;24.40;;
66826;SDS011;53727;45.242;19.796;2022-12-07T15:57:02;36.33;;;23.38;;
66826;SDS011;53727;45.242;19.796;2022-12-07T15:59:28;35.00;;;22.00;;
66826;SDS011;53727;45.242;19.796;2022-12-07T16:01:54;33.45;;;22.23;;
66826;SDS011;53727;45.242;19.796;2022-12-07T16:04:20;39.80;;;25.00;;
66826;SDS011;53727;45.242;19.796;2022-12-07T16:06:46;36.35;;;24.17;;
66826;SDS011;53727;45.242;19.796;2022-12-07T16:09:13;37.15;;;24.45;;
66826;SDS011;53727;45.242;19.796;2022-12-07T16:11:39;38.47;;;24.90;;
66826;SDS011;53727;45.242;19.796;2022-12-07T16:14:05;47.13;;;25.02;;
66826;SDS011;53727;45.242;19.796;2022-12-07T16:16:31;39.63;;;23.42;;
66826;SDS011;53727;45.242;19.796;2022-12-07T16:18:57;37.92;;;25.17;;
66826;SDS011;53727;45.242;19.796;2022-12-07T16:21:23;34.45;;;22.92;;
66826;SDS011;53727;45.242;19.796;2022-12-07T16:23:49;33.63;;;22.98;;
66826;SDS011;53727;45.242;19.796;2022-12-07T16:26:17;38.78;;;23.63;;
66826;SDS011;53727;45.242;19.796;2022-12-07T16:28:43;35.10;;;24.17;;
66826;SDS011;53727;45.242;19.796;2022-12-07T16:31:13;37.92;;;24.20;;
66826;SDS011;53727;45.242;19.796;2022-12-07T16:33:40;44.28;;;24.80;;